Time;durP1;ratioP1;P1;durP2;ratioP2;P2;SDS_P1;SDS_P2;PMS_P1;PMS_P2;Temp;Humidity;BMP_temperature;BMP_pressure;BME280_temperature;BME280_humidity;BME280_pressure;Samples;Min_cycle;Max_cycle;Signal;HPM_P1;HPM_P2
2023/01/08 00:01:54;;;;;;;10.65;9.52;;;8.70;99.90;;;;;;5034476;28;20029;-50
2023/01/08 00:04:40;;;;;;;9.63;8.43;;;8.70;99.90;;;;;;5020369;28;20595;-53
2023/01/08 00:07:26;;;;;;;8.55;7.65;;;8.70;99.90;;;;;;5020422;28;20057;-51
2023/01/08 00:10:12;;;;;;;11.13;8.40;;;8.70;99.90;;;;;;5021912;28;20018;-50
2023/01/08 00:12:59;;;;;;;8.85;7.88;;;8.70;99.90;;;;;;5018772;28;20092;-47
2023/01/08 00:15:44;;;;;;;9.27;7.63;;;8.70;99.90;;;;;;5035713;28;20072;-55
2023/01/08 00:18:31;;;;;;;9.45;8.45;;;8.80;99.90;;;;;;5035797;28;20029;-47
2023/01/08 00:21:17;;;;;;;8.10;7.30;;;8.70;99.90;;;;;;5035766;28;20021;-52
2023/01/08 00:24:03;;;;;;;9.32;7.95;;;8.80;99.90;;;;;;5019935;28;20057;-55
2023/01/08 00:26:49;;;;;;;8.90;8.00;;;8.80;99.90;;;;;;5033267;28;20109;-53
2023/01/08 00:29:36;;;;;;;9.27;7.80;;;8.90;99.90;;;;;;5033581;28;20026;-47
2023/01/08 00:32:22;;;;;;;9.15;7.55;;;8.90;99.90;;;;;;5035353;28;20113;-51
2023/01/08 00:35:08;;;;;;;8.93;8.02;;;8.90;99.90;;;;;;5033740;28;20022;-47
2023/01/08 00:37:54;;;;;;;8.85;7.30;;;9.00;99.90;;;;;;5020460;28;20026;-47
2023/01/08 00:40:40;;;;;;;8.43;7.47;;;8.90;99.90;;;;;;5033143;28;20120;-47
2023/01/08 00:43:26;;;;;;;9.15;7.88;;;9.00;99.90;;;;;;5020133;28;20032;-46
2023/01/08 00:46:16;;;;;;;9.38;8.23;;;9.00;99.90;;;;;;5033767;28;20053;-45
2023/01/08 00:49:02;;;;;;;9.40;8.05;;;9.10;99.90;;;;;;5004991;28;20025;-54
2023/01/08 00:51:48;;;;;;;9.00;7.53;;;9.00;99.90;;;;;;5033623;28;20490;-49
2023/01/08 00:54:33;;;;;;;9.63;8.30;;;8.90;99.90;;;;;;5032532;28;20079;-47
2023/01/08 00:57:20;;;;;;;9.07;7.75;;;8.90;99.90;;;;;;5019678;28;20029;-46
2023/01/08 01:00:08;;;;;;;8.48;7.60;;;8.90;99.90;;;;;;5019773;28;20037;-47
2023/01/08 01:02:54;;;;;;;8.68;7.50;;;8.80;99.90;;;;;;5016967;28;20025;-45
2023/01/08 01:05:40;;;;;;;10.00;7.75;;;8.90;99.90;;;;;;5032476;28;20048;-46
2023/01/08 01:08:25;;;;;;;10.15;7.32;;;8.80;99.90;;;;;;5031382;28;20029;-47
2023/01/08 01:11:23;;;;;;;8.90;7.10;;;8.80;99.90;;;;;;5031284;28;20036;-45
2023/01/08 01:14:09;;;;;;;8.23;6.80;;;8.80;99.90;;;;;;5018349;28;20036;-47
2023/01/08 01:16:55;;;;;;;7.55;6.82;;;8.90;99.90;;;;;;5032185;28;20069;-51
2023/01/08 01:19:42;;;;;;;8.38;7.35;;;8.90;99.90;;;;;;5031178;28;20068;-49
2023/01/08 01:22:28;;;;;;;7.97;6.72;;;8.90;99.90;;;;;;5032171;28;20045;-49
2023/01/08 01:25:14;;;;;;;7.90;7.10;;;8.90;99.90;;;;;;5030754;28;20474;-47
2023/01/08 01:28:00;;;;;;;7.70;6.57;;;8.90;99.90;;;;;;5030367;28;20095;-47
2023/01/08 01:30:53;;;;;;;8.27;7.15;;;8.90;99.90;;;;;;5017269;28;20071;-49
2023/01/08 01:33:40;;;;;;;11.68;7.35;;;8.90;99.90;;;;;;5031366;28;20022;-57
2023/01/08 01:36:28;;;;;;;9.75;7.40;;;8.90;99.90;;;;;;5017152;28;20049;-57
2023/01/08 01:39:14;;;;;;;9.23;7.18;;;8.80;99.90;;;;;;5020250;28;20022;-56
2023/01/08 01:42:00;;;;;;;8.55;7.60;;;8.70;99.90;;;;;;5036049;28;20033;-57
2023/01/08 01:44:46;;;;;;;9.80;7.25;;;8.70;99.90;;;;;;5036005;28;20033;-56
2023/01/08 01:47:37;;;;;;;8.25;7.15;;;8.70;99.90;;;;;;5034767;28;20029;-58
2023/01/08 01:50:31;;;;;;;8.20;7.40;;;8.60;99.90;;;;;;5035605;28;20029;-57
2023/01/08 01:53:18;;;;;;;8.30;7.20;;;8.60;99.90;;;;;;5021210;28;20030;-50
2023/01/08 01:56:05;;;;;;;8.73;7.15;;;8.50;99.90;;;;;;5019663;28;20040;-52
2023/01/08 01:58:51;;;;;;;7.93;7.15;;;8.50;99.90;;;;;;5035798;28;20030;-56
2023/01/08 02:01:38;;;;;;;8.70;7.65;;;8.60;99.90;;;;;;5035641;28;20033;-58
2023/01/08 02:04:24;;;;;;;9.38;7.53;;;8.60;99.90;;;;;;5035347;28;20029;-55
2023/01/08 02:07:10;;;;;;;8.52;7.25;;;8.60;99.90;;;;;;5020818;28;20037;-54
2023/01/08 02:10:12;;;;;;;8.77;7.88;;;8.60;99.90;;;;;;5035600;28;20017;-50
2023/01/08 02:13:12;;;;;;;9.40;7.18;;;8.60;99.90;;;;;;5034936;28;20017;-56
2023/01/08 02:16:11;;;;;;;11.18;8.07;;;8.60;99.90;;;;;;5034593;28;20053;-53
2023/01/08 02:19:06;;;;;;;8.00;7.18;;;8.50;99.90;;;;;;5018546;28;20022;-53
2023/01/08 02:22:04;;;;;;;7.93;7.13;;;8.60;99.90;;;;;;5034804;28;20030;-56
2023/01/08 02:24:59;;;;;;;8.00;7.15;;;8.50;99.90;;;;;;5035149;28;20034;-56
2023/01/08 02:27:48;;;;;;;9.50;7.40;;;8.50;99.90;;;;;;5034466;28;20163;-57
2023/01/08 02:30:34;;;;;;;8.98;8.07;;;8.50;99.90;;;;;;5019929;28;20034;-56
2023/01/08 02:33:22;;;;;;;8.63;7.30;;;8.30;99.90;;;;;;5034358;28;20438;-55
2023/01/08 02:36:40;;;;;;;7.80;7.00;;;8.30;99.90;;;;;;5034237;28;20446;-52
2023/01/08 02:39:40;;;;;;;8.98;7.32;;;8.30;99.90;;;;;;5034765;28;20018;-53
2023/01/08 02:42:34;;;;;;;8.43;7.20;;;8.30;99.90;;;;;;5034815;28;20057;-55
2023/01/08 02:45:41;;;;;;;8.27;7.13;;;8.30;99.90;;;;;;5020567;28;20022;-57
2023/01/08 02:48:48;;;;;;;8.68;7.18;;;8.40;99.90;;;;;;5034438;28;20028;-57
2023/01/08 02:51:39;;;;;;;7.65;6.50;;;8.60;99.90;;;;;;5034007;28;20104;-54
2023/01/08 02:54:30;;;;;;;6.97;6.00;;;8.60;99.90;;;;;;5034182;28;20097;-51
2023/01/08 02:57:17;;;;;;;7.72;6.68;;;8.70;99.90;;;;;;5033597;28;20071;-55
2023/01/08 03:00:04;;;;;;;7.40;6.13;;;8.80;99.90;;;;;;5033353;28;20454;-50
2023/01/08 03:03:00;;;;;;;8.57;6.22;;;8.80;99.90;;;;;;5019585;28;20044;-52
2023/01/08 03:05:51;;;;;;;7.57;5.93;;;8.90;99.90;;;;;;5034564;28;20512;-54
2023/01/08 03:08:39;;;;;;;6.97;5.85;;;8.90;99.90;;;;;;5033833;28;20037;-53
2023/01/08 03:11:30;;;;;;;6.35;5.72;;;8.90;99.90;;;;;;5034089;28;20017;-55
2023/01/08 03:14:45;;;;;;;6.80;6.03;;;9.00;99.90;;;;;;5033692;28;20452;-54
2023/01/08 03:17:43;;;;;;;7.43;6.65;;;9.00;99.90;;;;;;5033508;28;20032;-56
2023/01/08 03:20:32;;;;;;;11.10;8.30;;;9.00;99.90;;;;;;5033355;28;20079;-53
2023/01/08 03:23:19;;;;;;;7.88;6.40;;;9.10;99.90;;;;;;5033269;28;20021;-59
2023/01/08 03:26:06;;;;;;;6.93;6.22;;;9.00;99.90;;;;;;5033409;28;20572;-56
2023/01/08 03:28:54;;;;;;;6.75;6.05;;;9.10;99.90;;;;;;5034038;28;20037;-52
2023/01/08 03:31:43;;;;;;;6.65;5.72;;;9.00;99.90;;;;;;5033419;28;20032;-53
2023/01/08 03:34:31;;;;;;;9.60;5.70;;;9.10;99.90;;;;;;5033106;28;20029;-55
2023/01/08 03:37:23;;;;;;;6.65;6.00;;;9.00;99.90;;;;;;5032516;28;20030;-53
2023/01/08 03:40:17;;;;;;;7.32;5.80;;;9.10;99.90;;;;;;5032829;28;20108;-54
2023/01/08 03:43:02;;;;;;;6.60;5.90;;;9.10;99.90;;;;;;5019178;28;20519;-51
2023/01/08 03:45:54;;;;;;;6.75;5.07;;;9.20;99.90;;;;;;5018845;28;20037;-54
2023/01/08 03:48:41;;;;;;;6.90;5.93;;;9.20;99.90;;;;;;5019019;28;20508;-54
2023/01/08 03:51:27;;;;;;;6.90;6.10;;;9.10;99.90;;;;;;5032932;28;20025;-55
2023/01/08 03:54:19;;;;;;;8.85;6.70;;;9.20;99.90;;;;;;5032214;28;20033;-57
2023/01/08 03:57:05;;;;;;;7.68;6.00;;;9.20;99.90;;;;;;5032475;28;20029;-54
2023/01/08 03:59:51;;;;;;;7.68;6.47;;;9.10;99.90;;;;;;5033087;28;20445;-56
2023/01/08 04:02:37;;;;;;;7.65;6.40;;;9.00;99.90;;;;;;5031939;28;20061;-57
2023/01/08 04:05:23;;;;;;;7.22;6.45;;;9.00;99.90;;;;;;5016646;28;20203;-54
2023/01/08 04:08:09;;;;;;;7.68;6.88;;;9.00;99.90;;;;;;5017919;28;20017;-56
2023/01/08 04:10:55;;;;;;;8.63;7.18;;;8.90;99.90;;;;;;5032031;28;20064;-52
2023/01/08 04:13:41;;;;;;;8.73;6.90;;;8.90;99.90;;;;;;5031642;28;20026;-56
2023/01/08 04:16:27;;;;;;;8.35;7.25;;;8.90;99.90;;;;;;5032574;28;20061;-57
2023/01/08 04:19:13;;;;;;;7.60;6.72;;;8.90;99.90;;;;;;5032790;28;20026;-53
2023/01/08 04:21:59;;;;;;;6.90;6.10;;;8.90;99.90;;;;;;5031754;28;20024;-55
2023/01/08 04:24:45;;;;;;;6.78;5.82;;;8.90;99.90;;;;;;5032733;28;20128;-55
2023/01/08 04:27:31;;;;;;;8.85;6.20;;;9.00;99.90;;;;;;5015683;28;20026;-53
2023/01/08 04:30:17;;;;;;;7.65;6.25;;;9.00;99.90;;;;;;5017820;28;20030;-58
2023/01/08 04:33:03;;;;;;;7.50;6.32;;;9.00;99.90;;;;;;5032608;28;20083;-54
2023/01/08 04:35:49;;;;;;;7.53;6.15;;;9.00;99.90;;;;;;5031235;28;20026;-53
2023/01/08 04:38:35;;;;;;;6.75;6.05;;;9.10;99.90;;;;;;5032153;28;20029;-59
2023/01/08 04:41:21;;;;;;;6.80;5.65;;;9.20;99.90;;;;;;5032486;28;20092;-57
2023/01/08 04:44:08;;;;;;;7.15;5.43;;;9.10;99.90;;;;;;5032459;28;20029;-57
2023/01/08 04:46:54;;;;;;;7.57;5.13;;;9.20;99.90;;;;;;5031047;28;20033;-57
2023/01/08 04:49:40;;;;;;;8.05;5.03;;;9.30;99.90;;;;;;5032730;28;20029;-53
2023/01/08 04:52:28;;;;;;;7.45;5.50;;;9.30;99.90;;;;;;5031325;28;20034;-59
2023/01/08 04:55:14;;;;;;;5.68;4.72;;;9.40;99.90;;;;;;5017161;28;20052;-59
2023/01/08 04:58:00;;;;;;;5.95;5.18;;;9.40;99.90;;;;;;5030940;28;20029;-58
2023/01/08 05:00:46;;;;;;;6.68;5.10;;;9.40;99.90;;;;;;5016879;28;20124;-55
2023/01/08 05:03:32;;;;;;;7.68;4.95;;;9.40;99.90;;;;;;5031552;28;20029;-53
2023/01/08 05:06:18;;;;;;;5.93;5.10;;;9.40;99.90;;;;;;5015551;28;20036;-56
2023/01/08 05:09:04;;;;;;;5.13;4.22;;;9.50;99.90;;;;;;5016697;28;20148;-53
2023/01/08 05:11:50;;;;;;;7.30;4.70;;;9.60;99.90;;;;;;5030744;28;20026;-57
2023/01/08 05:14:35;;;;;;;6.63;4.97;;;9.50;99.90;;;;;;5030879;28;20025;-56
2023/01/08 05:17:21;;;;;;;6.38;4.97;;;9.60;99.90;;;;;;5031779;28;20025;-52
2023/01/08 05:20:08;;;;;;;5.82;4.97;;;9.60;99.90;;;;;;5031843;28;20029;-55
2023/01/08 05:22:54;;;;;;;5.90;5.10;;;9.50;99.90;;;;;;5030899;28;20067;-53
2023/01/08 05:25:40;;;;;;;5.95;5.00;;;9.50;99.90;;;;;;5031881;28;20406;-55
2023/01/08 05:28:26;;;;;;;6.68;5.35;;;9.60;99.90;;;;;;5029949;28;20045;-55
2023/01/08 05:31:12;;;;;;;6.10;5.35;;;9.60;99.90;;;;;;5031750;28;20033;-52
2023/01/08 05:33:59;;;;;;;6.43;5.18;;;9.60;99.90;;;;;;5017609;28;20018;-52
2023/01/08 05:36:45;;;;;;;6.90;5.28;;;9.60;99.90;;;;;;5031828;28;20408;-56
2023/01/08 05:39:31;;;;;;;6.68;5.65;;;9.60;99.90;;;;;;5029797;28;20129;-55
2023/01/08 05:42:17;;;;;;;6.03;5.20;;;9.60;99.90;;;;;;5030433;28;20044;-53
2023/01/08 05:45:04;;;;;;;6.57;5.22;;;9.60;99.90;;;;;;5031579;28;20034;-54
2023/01/08 05:47:50;;;;;;;8.05;5.78;;;9.70;99.90;;;;;;5030757;28;20080;-55
2023/01/08 05:50:36;;;;;;;7.38;5.28;;;9.80;99.90;;;;;;5030113;28;20453;-52
2023/01/08 05:53:22;;;;;;;6.10;4.75;;;9.80;99.90;;;;;;5031553;28;20432;-52
2023/01/08 05:56:10;;;;;;;5.95;5.00;;;9.70;99.90;;;;;;5031362;28;20026;-53
2023/01/08 05:58:56;;;;;;;5.95;5.35;;;9.80;99.90;;;;;;5030737;28;20393;-57
2023/01/08 06:01:42;;;;;;;6.70;5.93;;;9.70;99.90;;;;;;5030366;28;20134;-55
2023/01/08 06:04:28;;;;;;;6.28;5.55;;;9.70;99.90;;;;;;5030423;28;20029;-54
2023/01/08 06:07:14;;;;;;;7.13;5.60;;;9.70;99.90;;;;;;5031197;28;20053;-57
2023/01/08 06:10:00;;;;;;;6.80;5.50;;;9.70;99.90;;;;;;5031432;28;20025;-56
2023/01/08 06:12:46;;;;;;;6.22;5.25;;;9.70;99.90;;;;;;5030650;28;20022;-56
2023/01/08 06:15:32;;;;;;;7.85;5.82;;;9.70;99.90;;;;;;5016575;28;20029;-56
2023/01/08 06:18:18;;;;;;;7.97;6.00;;;9.60;99.90;;;;;;5031166;28;20037;-56
2023/01/08 06:21:04;;;;;;;8.27;6.65;;;9.60;99.90;;;;;;5030903;28;20030;-60
2023/01/08 06:23:50;;;;;;;6.35;5.70;;;9.60;99.90;;;;;;5015603;28;20038;-58
2023/01/08 06:26:36;;;;;;;6.40;5.80;;;9.60;99.90;;;;;;5034739;28;20068;-57
2023/01/08 06:29:22;;;;;;;8.43;6.82;;;9.60;99.90;;;;;;5034326;28;20032;-54
2023/01/08 06:32:08;;;;;;;8.57;6.18;;;9.60;99.90;;;;;;5033060;28;20391;-54
2023/01/08 06:34:54;;;;;;;8.38;6.22;;;9.60;99.90;;;;;;5033707;28;20405;-53
2023/01/08 06:37:40;;;;;;;10.55;7.45;;;9.60;99.90;;;;;;5033372;28;20083;-56
2023/01/08 06:40:26;;;;;;;8.38;5.93;;;9.60;99.90;;;;;;5032817;28;20125;-56
2023/01/08 06:43:12;;;;;;;10.30;6.30;;;9.60;99.90;;;;;;5034867;28;20029;-54
2023/01/08 06:45:58;;;;;;;9.35;5.95;;;9.70;99.90;;;;;;5033644;28;20026;-55
2023/01/08 06:48:44;;;;;;;7.50;6.40;;;9.70;99.90;;;;;;5017648;28;20034;-56
2023/01/08 06:51:30;;;;;;;7.85;5.75;;;9.70;99.90;;;;;;5033473;28;20059;-53
2023/01/08 06:54:16;;;;;;;7.80;5.60;;;9.60;99.90;;;;;;5033299;28;20030;-52
2023/01/08 06:57:02;;;;;;;7.63;5.70;;;9.60;99.90;;;;;;5034453;28;20030;-56
2023/01/08 06:59:48;;;;;;;6.57;5.70;;;9.60;99.90;;;;;;5033927;28;20025;-54
2023/01/08 07:02:34;;;;;;;6.93;6.18;;;9.60;99.90;;;;;;5033310;28;20040;-57
2023/01/08 07:05:20;;;;;;;11.13;9.30;;;9.60;99.90;;;;;;5034348;28;20037;-52
2023/01/08 07:08:12;;;;;;;14.50;12.05;;;9.60;99.90;;;;;;5033707;28;20079;-56
2023/01/08 07:11:02;;;;;;;8.73;7.40;;;9.60;99.90;;;;;;5033152;28;20048;-56
2023/01/08 07:13:48;;;;;;;8.18;6.38;;;9.60;99.90;;;;;;5032425;28;20059;-54
2023/01/08 07:16:34;;;;;;;10.85;6.78;;;9.60;99.90;;;;;;5019494;28;20029;-53
2023/01/08 07:19:20;;;;;;;8.15;6.90;;;9.60;99.90;;;;;;5034221;28;20026;-53
2023/01/08 07:22:06;;;;;;;7.60;6.20;;;9.60;99.90;;;;;;5032945;28;20025;-57
2023/01/08 07:24:52;;;;;;;6.18;5.40;;;9.60;99.90;;;;;;5019012;28;20025;-54
2023/01/08 07:27:38;;;;;;;11.75;9.10;;;9.60;99.90;;;;;;5033503;28;20033;-55
2023/01/08 07:30:24;;;;;;;11.38;8.55;;;9.60;99.90;;;;;;5032829;28;20058;-55
2023/01/08 07:33:10;;;;;;;7.35;6.07;;;9.60;99.90;;;;;;5033866;28;20021;-56
2023/01/08 07:35:56;;;;;;;9.55;7.78;;;9.60;99.90;;;;;;5031563;28;20026;-55
2023/01/08 07:38:42;;;;;;;8.40;6.30;;;9.60;99.90;;;;;;5032345;28;20107;-55
2023/01/08 07:41:28;;;;;;;7.53;5.97;;;9.60;99.90;;;;;;5033480;28;20117;-57
2023/01/08 07:44:14;;;;;;;7.35;5.80;;;9.50;99.90;;;;;;5033683;28;20037;-57
2023/01/08 07:47:00;;;;;;;7.97;5.80;;;9.60;99.90;;;;;;5031882;28;20022;-57
2023/01/08 07:49:46;;;;;;;7.53;6.10;;;9.60;99.90;;;;;;5033436;28;20030;-55
2023/01/08 07:52:32;;;;;;;7.55;5.80;;;9.60;99.90;;;;;;5032777;28;20113;-54
2023/01/08 07:55:18;;;;;;;7.63;6.30;;;9.60;99.90;;;;;;5033142;28;20033;-56
2023/01/08 07:58:09;;;;;;;8.85;6.82;;;9.70;99.90;;;;;;5031663;28;20497;-58
2023/01/08 08:00:56;;;;;;;6.93;6.20;;;9.70;99.90;;;;;;5032681;28;20035;-55
2023/01/08 08:03:42;;;;;;;7.47;5.75;;;9.70;99.90;;;;;;5032638;28;20105;-54
2023/01/08 08:06:28;;;;;;;7.68;6.28;;;9.70;99.90;;;;;;5018228;28;20033;-54
2023/01/08 08:09:14;;;;;;;8.45;6.85;;;9.70;99.90;;;;;;5033008;28;20048;-55
2023/01/08 08:12:00;;;;;;;9.85;6.70;;;9.70;99.90;;;;;;5033241;28;20033;-55
2023/01/08 08:14:45;;;;;;;10.07;7.07;;;9.70;99.90;;;;;;5033180;28;20022;-57
2023/01/08 08:17:31;;;;;;;8.45;6.50;;;9.70;99.90;;;;;;5018367;28;20040;-57
2023/01/08 08:20:17;;;;;;;8.48;5.97;;;9.60;99.90;;;;;;5032889;28;20021;-58
2023/01/08 08:23:13;;;;;;;7.20;6.10;;;9.50;99.90;;;;;;5032650;28;20037;-57
2023/01/08 08:26:02;;;;;;;6.97;6.18;;;9.60;99.90;;;;;;5018322;28;20053;-56
2023/01/08 08:28:49;;;;;;;8.95;7.10;;;9.60;99.90;;;;;;5031429;28;20450;-56
2023/01/08 08:31:35;;;;;;;7.13;6.43;;;9.40;99.90;;;;;;5017731;28;20029;-57
2023/01/08 08:34:21;;;;;;;8.55;6.70;;;9.50;99.90;;;;;;5032581;28;20104;-54
2023/01/08 08:37:07;;;;;;;14.52;10.63;;;9.50;99.90;;;;;;5031701;28;20033;-58
2023/01/08 08:39:53;;;;;;;8.32;7.07;;;9.50;99.90;;;;;;5017888;28;20030;-51
2023/01/08 08:42:39;;;;;;;7.50;6.68;;;9.50;99.90;;;;;;5032780;28;20060;-53
2023/01/08 08:45:26;;;;;;;7.70;6.88;;;9.40;99.90;;;;;;5033658;28;20033;-52
2023/01/08 08:48:12;;;;;;;7.63;6.28;;;9.40;99.90;;;;;;5033185;28;20033;-51
2023/01/08 08:50:58;;;;;;;7.53;6.70;;;9.50;99.90;;;;;;5032732;28;20026;-54
2023/01/08 08:53:44;;;;;;;10.57;7.40;;;9.50;99.90;;;;;;5032260;28;20129;-55
2023/01/08 08:56:30;;;;;;;8.73;6.75;;;9.50;99.90;;;;;;5031046;28;20041;-53
2023/01/08 08:59:16;;;;;;;7.90;6.80;;;9.50;99.90;;;;;;5015939;28;20084;-56
2023/01/08 09:02:02;;;;;;;10.07;6.40;;;9.50;99.90;;;;;;5031483;28;20038;-58
2023/01/08 09:04:48;;;;;;;8.95;7.65;;;9.50;99.90;;;;;;5032416;28;20022;-58
2023/01/08 09:07:34;;;;;;;7.78;6.55;;;9.40;99.90;;;;;;5017878;28;20513;-52
2023/01/08 09:10:22;;;;;;;57.47;33.95;;;9.50;99.90;;;;;;5032321;28;20112;-53
2023/01/08 09:13:08;;;;;;;10.00;6.68;;;9.50;99.90;;;;;;5031867;28;20026;-57
2023/01/08 09:15:57;;;;;;;8.85;6.70;;;9.60;99.90;;;;;;5030643;28;20536;-56
2023/01/08 09:18:43;;;;;;;7.95;7.15;;;9.60;99.90;;;;;;5015631;28;20505;-56
2023/01/08 09:21:29;;;;;;;7.90;6.40;;;9.60;99.90;;;;;;5031581;28;20409;-57
2023/01/08 09:24:16;;;;;;;8.40;6.43;;;9.60;99.90;;;;;;5031960;28;20029;-57
2023/01/08 09:27:02;;;;;;;8.43;6.25;;;9.60;99.90;;;;;;5031121;28;20041;-58
2023/01/08 09:29:47;;;;;;;6.90;6.30;;;9.70;99.90;;;;;;5032184;28;20167;-55
2023/01/08 09:32:33;;;;;;;8.98;6.88;;;9.60;99.90;;;;;;5031716;28;20033;-56
2023/01/08 09:35:19;;;;;;;7.90;6.85;;;9.60;99.90;;;;;;5032266;28;20026;-53
2023/01/08 09:38:05;;;;;;;8.85;7.75;;;9.60;99.90;;;;;;5031207;28;20055;-57
2023/01/08 09:41:00;;;;;;;8.85;7.38;;;9.70;99.90;;;;;;5031866;28;20397;-56
2023/01/08 09:43:49;;;;;;;6.73;6.10;;;9.70;99.90;;;;;;5031305;28;20036;-52
2023/01/08 09:46:35;;;;;;;9.35;7.53;;;9.70;99.90;;;;;;5017366;28;20113;-51
2023/01/08 09:49:27;;;;;;;9.43;6.95;;;9.60;99.90;;;;;;5031764;28;20029;-54
2023/01/08 09:52:14;;;;;;;7.50;6.80;;;9.60;99.90;;;;;;5030585;28;20021;-56
2023/01/08 09:55:00;;;;;;;9.45;6.55;;;9.60;99.90;;;;;;5031569;28;20501;-51
2023/01/08 09:57:47;;;;;;;8.35;7.32;;;9.60;99.90;;;;;;5031552;28;20029;-53
2023/01/08 10:00:33;;;;;;;8.02;7.22;;;9.60;99.90;;;;;;5035367;28;20490;-54
2023/01/08 10:03:24;;;;;;;8.65;6.88;;;9.60;99.90;;;;;;5034417;28;20029;-57
2023/01/08 10:06:12;;;;;;;8.02;7.15;;;9.60;99.90;;;;;;5020997;28;20034;-55
2023/01/08 10:08:58;;;;;;;8.00;7.20;;;9.70;99.90;;;;;;5034188;28;20540;-57
2023/01/08 10:11:47;;;;;;;8.25;6.95;;;9.70;99.90;;;;;;5035296;28;20472;-57
2023/01/08 10:14:38;;;;;;;9.68;6.90;;;9.80;99.90;;;;;;5035627;28;20494;-52
2023/01/08 10:17:27;;;;;;;15.63;10.45;;;9.80;99.90;;;;;;5034635;28;20048;-53
2023/01/08 10:20:15;;;;;;;8.00;7.20;;;9.70;99.90;;;;;;5034399;28;20104;-49
2023/01/08 10:23:13;;;;;;;10.20;9.10;;;9.80;99.90;;;;;;5035083;28;20025;-50
2023/01/08 10:26:01;;;;;;;10.88;7.72;;;9.90;99.90;;;;;;5035051;28;20101;-50
2023/01/08 10:28:47;;;;;;;7.55;6.60;;;9.80;99.90;;;;;;5035005;28;20026;-50
2023/01/08 10:31:37;;;;;;;8.25;7.00;;;9.90;99.90;;;;;;5033917;28;20022;-50
2023/01/08 10:34:30;;;;;;;8.40;6.53;;;9.90;99.90;;;;;;5019580;28;20448;-54
2023/01/08 10:37:43;;;;;;;7.93;7.03;;;9.90;99.90;;;;;;5033785;28;20064;-55
2023/01/08 10:40:36;;;;;;;8.77;6.70;;;10.00;99.90;;;;;;5034521;28;20034;-56
2023/01/08 10:43:29;;;;;;;9.32;7.13;;;9.90;99.90;;;;;;5035434;28;20160;-55
2023/01/08 10:46:29;;;;;;;7.88;6.50;;;9.90;99.90;;;;;;5033782;28;20112;-58
2023/01/08 10:49:54;;;;;;;9.27;6.70;;;9.80;99.90;;;;;;5028465;28;20030;-53
2023/01/08 10:52:52;;;;;;;9.05;6.80;;;9.90;99.90;;;;;;4953753;28;20543;-49
2023/01/08 10:55:39;;;;;;;7.95;6.88;;;10.00;99.90;;;;;;4953887;28;20035;-49
2023/01/08 10:58:27;;;;;;;7.40;6.60;;;9.90;99.90;;;;;;4998381;28;20044;-53
2023/01/08 11:01:30;;;;;;;8.52;7.15;;;9.90;99.90;;;;;;5014660;28;20085;-50
2023/01/08 11:04:32;;;;;;;11.45;8.13;;;10.00;99.90;;;;;;5000053;28;20505;-46
2023/01/08 11:07:20;;;;;;;8.00;7.20;;;10.00;99.90;;;;;;5014662;28;20113;-52
2023/01/08 11:10:23;;;;;;;7.75;6.90;;;10.00;99.90;;;;;;5013401;28;20452;-55
2023/01/08 11:13:18;;;;;;;8.18;7.35;;;10.10;99.90;;;;;;5015188;28;20030;-56
2023/01/08 11:16:09;;;;;;;8.10;6.97;;;10.00;99.90;;;;;;5015217;28;20034;-57
2023/01/08 11:18:56;;;;;;;7.20;6.40;;;10.00;99.90;;;;;;5014632;28;20034;-57
2023/01/08 11:21:52;;;;;;;8.45;6.40;;;10.00;99.90;;;;;;5014947;28;20138;-57
2023/01/08 11:24:39;;;;;;;7.32;6.63;;;9.90;99.90;;;;;;5015305;28;20394;-59
2023/01/08 11:27:35;;;;;;;7.68;6.05;;;10.00;99.90;;;;;;5014662;28;20112;-60
2023/01/08 11:30:25;;;;;;;8.35;6.07;;;10.00;99.90;;;;;;5015223;28;20433;-54
2023/01/08 11:33:17;;;;;;;7.65;6.20;;;10.00;99.90;;;;;;5014434;28;20022;-58
2023/01/08 11:36:11;;;;;;;8.77;5.78;;;9.90;99.90;;;;;;5014007;28;20021;-57
2023/01/08 11:38:57;;;;;;;5.70;5.10;;;10.00;99.90;;;;;;5015097;28;20025;-52
2023/01/08 11:41:50;;;;;;;6.75;5.53;;;10.00;99.90;;;;;;4987863;28;20080;-56
2023/01/08 11:45:17;;;;;;;6.05;5.43;;;10.00;99.90;;;;;;4999559;28;20065;-53
2023/01/08 11:48:04;;;;;;;6.35;5.68;;;10.00;99.90;;;;;;5013686;28;20025;-54
2023/01/08 11:51:17;;;;;;;6.93;5.75;;;9.90;99.90;;;;;;5014372;28;20026;-51
2023/01/08 11:54:17;;;;;;;6.30;5.70;;;10.00;99.90;;;;;;5014378;28;20044;-56
2023/01/08 11:57:24;;;;;;;8.15;5.38;;;10.00;99.90;;;;;;5014515;28;20348;-52
2023/01/08 12:00:50;;;;;;;9.05;5.78;;;10.00;99.90;;;;;;5014169;28;20061;-50
2023/01/08 12:03:42;;;;;;;11.13;6.43;;;10.00;99.90;;;;;;5013461;28;20029;-56
2023/01/08 12:06:54;;;;;;;8.43;6.70;;;10.00;99.90;;;;;;5014705;28;20034;-54
2023/01/08 12:09:41;;;;;;;6.20;5.53;;;10.00;99.90;;;;;;5014199;28;20026;-54
2023/01/08 12:12:53;;;;;;;7.45;5.55;;;10.10;99.90;;;;;;5014011;28;20022;-52
2023/01/08 12:16:17;;;;;;;9.15;5.45;;;10.10;99.90;;;;;;4980587;28;20030;-52
2023/01/08 12:19:18;;;;;;;6.03;4.93;;;10.10;99.90;;;;;;5013699;28;20026;-53
2023/01/08 12:22:04;;;;;;;6.90;5.20;;;10.00;99.90;;;;;;5012623;28;20495;-54
2023/01/08 12:24:58;;;;;;;6.00;5.30;;;10.10;99.90;;;;;;4999028;28;20158;-56
2023/01/08 12:28:20;;;;;;;6.25;5.25;;;10.20;99.90;;;;;;5013402;28;20030;-53
2023/01/08 12:31:30;;;;;;;6.18;4.78;;;10.20;99.90;;;;;;5012781;28;20080;-51
2023/01/08 12:34:35;;;;;;;5.82;5.32;;;10.10;99.90;;;;;;5013948;28;20026;-55
2023/01/08 12:37:29;;;;;;;5.88;5.25;;;10.10;99.90;;;;;;5013777;28;20036;-50
2023/01/08 12:40:18;;;;;;;6.70;5.10;;;10.10;99.90;;;;;;5013901;28;20025;-51
2023/01/08 12:43:12;;;;;;;5.80;4.88;;;10.10;99.90;;;;;;5013199;28;20037;-53
2023/01/08 12:46:01;;;;;;;5.78;4.60;;;10.10;99.90;;;;;;5013908;28;20064;-54
2023/01/08 12:48:49;;;;;;;5.72;5.18;;;10.10;99.90;;;;;;5013078;28;20037;-57
2023/01/08 12:51:44;;;;;;;7.35;5.40;;;10.00;99.90;;;;;;5012972;28;20541;-49
2023/01/08 12:54:30;;;;;;;;;;;10.10;99.90;;;;;;5012933;28;20459;-53
2023/01/08 12:57:33;;;;;;;5.18;4.50;;;10.10;99.90;;;;;;5013800;28;19905;-51
2023/01/08 13:00:28;;;;;;;5.93;5.30;;;10.10;99.90;;;;;;4998647;28;20038;-52
2023/01/08 13:03:21;;;;;;;4.82;4.18;;;10.10;99.90;;;;;;5013258;28;20034;-54
2023/01/08 13:06:12;;;;;;;5.15;4.53;;;10.10;99.90;;;;;;5013262;28;20069;-52
2023/01/08 13:08:59;;;;;;;4.93;4.30;;;10.10;99.90;;;;;;5009810;28;20114;-53
2023/01/08 13:11:51;;;;;;;5.07;4.32;;;10.10;99.90;;;;;;5024906;28;20030;-54
2023/01/08 13:14:42;;;;;;;5.00;4.50;;;10.10;99.90;;;;;;5028294;28;20389;-54
2023/01/08 13:17:28;;;;;;;5.78;4.60;;;10.10;99.90;;;;;;5027841;28;20025;-51
2023/01/08 13:20:23;;;;;;;4.35;3.92;;;10.10;99.90;;;;;;5030177;28;20040;-53
2023/01/08 13:23:23;;;;;;;4.88;4.22;;;10.20;99.90;;;;;;5015324;28;20052;-52
2023/01/08 13:26:09;;;;;;;5.18;4.07;;;10.20;99.90;;;;;;5013895;28;20072;-51
2023/01/08 13:29:26;;;;;;;6.05;4.40;;;10.20;99.90;;;;;;5007578;28;20080;-56
2023/01/08 13:32:45;;;;;;;6.28;4.40;;;10.20;99.90;;;;;;4999758;28;20041;-56
2023/01/08 13:35:37;;;;;;;6.20;4.18;;;10.20;99.90;;;;;;5012470;28;20021;-54
2023/01/08 13:38:28;;;;;;;5.55;4.53;;;10.20;99.90;;;;;;5029151;28;20541;-52
2023/01/08 13:41:40;;;;;;;6.68;4.32;;;10.10;99.90;;;;;;5005012;28;20445;-54
2023/01/08 13:44:57;;;;;;;14.43;10.20;;;10.10;99.90;;;;;;5012735;28;20553;-53
2023/01/08 13:47:58;;;;;;;6.22;4.72;;;10.20;99.90;;;;;;5001373;28;20038;-50
2023/01/08 13:50:45;;;;;;;5.05;4.40;;;10.20;99.90;;;;;;5013013;28;20022;-48
2023/01/08 13:53:32;;;;;;;5.05;4.10;;;10.30;99.90;;;;;;5009575;28;20067;-50
2023/01/08 13:56:21;;;;;;;4.90;4.10;;;10.20;99.90;;;;;;5031440;28;20068;-52
2023/01/08 13:59:18;;;;;;;6.82;4.20;;;10.20;99.90;;;;;;5018725;28;20498;-52
2023/01/08 14:02:21;;;;;;;7.47;4.22;;;10.20;99.90;;;;;;5023793;28;20043;-55
2023/01/08 14:05:19;;;;;;;6.30;4.65;;;10.20;99.90;;;;;;5003229;28;20029;-52
2023/01/08 14:08:19;;;;;;;9.50;7.60;;;10.20;99.90;;;;;;4991463;28;20037;-53
2023/01/08 14:11:05;;;;;;;6.40;5.00;;;10.20;99.90;;;;;;5002246;28;20068;-57
2023/01/08 14:13:51;;;;;;;6.22;4.85;;;10.30;99.90;;;;;;5017937;28;20117;-57
2023/01/08 14:16:38;;;;;;;5.60;4.90;;;10.30;99.90;;;;;;5023907;28;20029;-53
2023/01/08 14:19:25;;;;;;;6.80;4.75;;;10.30;99.90;;;;;;4985281;28;20030;-56
2023/01/08 14:22:18;;;;;;;7.10;5.40;;;10.30;99.90;;;;;;4991338;28;20038;-56
2023/01/08 14:25:06;;;;;;;5.70;4.72;;;10.30;99.90;;;;;;4992734;28;20110;-51
2023/01/08 14:28:04;;;;;;;5.47;4.53;;;10.30;99.90;;;;;;5018421;28;20040;-57
2023/01/08 14:30:52;;;;;;;5.25;4.55;;;10.60;99.90;;;;;;5020270;28;20022;-54
2023/01/08 14:33:40;;;;;;;5.07;4.57;;;11.20;99.90;;;;;;5008294;28;20502;-53
2023/01/08 14:36:27;;;;;;;10.48;4.50;;;11.40;99.90;;;;;;5027065;28;20059;-53
2023/01/08 14:39:39;;;;;;;5.13;4.63;;;11.00;99.90;;;;;;5019373;28;20029;-51
2023/01/08 14:42:52;;;;;;;6.00;4.43;;;10.70;99.90;;;;;;4991202;28;20121;-52
2023/01/08 14:45:43;;;;;;;13.38;6.03;;;10.50;99.90;;;;;;4993934;28;20022;-48
2023/01/08 14:48:50;;;;;;;5.97;4.55;;;10.30;99.90;;;;;;5034683;28;20052;-49
2023/01/08 14:51:39;;;;;;;6.38;4.72;;;10.20;99.90;;;;;;5033184;28;20057;-58
2023/01/08 14:54:34;;;;;;;6.13;5.22;;;10.20;99.90;;;;;;5015937;28;20026;-52